sensor_id;sensor_type;location;lat;lon;timestamp;P1;durP1;ratioP1;P2;durP2;ratioP2
43744;SDS011;29359;53.048;8.732;2023-02-11T00:00:29;49.28;;;25.20;;
43744;SDS011;29359;53.048;8.732;2023-02-11T00:02:31;44.30;;;24.90;;
43744;SDS011;29359;53.048;8.732;2023-02-11T00:04:33;42.50;;;23.00;;
43744;SDS011;29359;53.048;8.732;2023-02-11T00:06:34;45.53;;;25.17;;
43744;SDS011;29359;53.048;8.732;2023-02-11T00:08:37;49.95;;;25.30;;
43744;SDS011;29359;53.048;8.732;2023-02-11T00:10:39;44.00;;;23.70;;
43744;SDS011;29359;53.048;8.732;2023-02-11T00:12:40;43.92;;;24.05;;
43744;SDS011;29359;53.048;8.732;2023-02-11T00:14:43;46.88;;;24.88;;
43744;SDS011;29359;53.048;8.732;2023-02-11T00:16:44;51.35;;;24.58;;
43744;SDS011;29359;53.048;8.732;2023-02-11T00:18:46;50.78;;;24.90;;
43744;SDS011;29359;53.048;8.732;2023-02-11T00:20:47;45.20;;;23.48;;
43744;SDS011;29359;53.048;8.732;2023-02-11T00:22:49;43.05;;;24.00;;
43744;SDS011;29359;53.048;8.732;2023-02-11T00:24:50;54.80;;;24.02;;
43744;SDS011;29359;53.048;8.732;2023-02-11T00:26:52;42.28;;;22.70;;
43744;SDS011;29359;53.048;8.732;2023-02-11T00:28:53;37.75;;;21.77;;
43744;SDS011;29359;53.048;8.732;2023-02-11T00:30:55;44.67;;;23.35;;
43744;SDS011;29359;53.048;8.732;2023-02-11T00:32:57;43.47;;;22.73;;
43744;SDS011;29359;53.048;8.732;2023-02-11T00:34:59;42.70;;;23.20;;
43744;SDS011;29359;53.048;8.732;2023-02-11T00:37:01;43.58;;;23.30;;
43744;SDS011;29359;53.048;8.732;2023-02-11T00:39:03;41.67;;;24.15;;
43744;SDS011;29359;53.048;8.732;2023-02-11T00:41:05;45.80;;;22.45;;
43744;SDS011;29359;53.048;8.732;2023-02-11T00:43:06;42.88;;;22.95;;
43744;SDS011;29359;53.048;8.732;2023-02-11T00:45:08;42.25;;;23.05;;
43744;SDS011;29359;53.048;8.732;2023-02-11T00:47:10;44.05;;;22.45;;
43744;SDS011;29359;53.048;8.732;2023-02-11T00:49:11;36.47;;;22.10;;
43744;SDS011;29359;53.048;8.732;2023-02-11T00:51:13;46.20;;;23.08;;
43744;SDS011;29359;53.048;8.732;2023-02-11T00:53:15;43.08;;;21.85;;
43744;SDS011;29359;53.048;8.732;2023-02-11T00:55:16;41.10;;;21.70;;
43744;SDS011;29359;53.048;8.732;2023-02-11T00:57:18;45.97;;;23.33;;
43744;SDS011;29359;53.048;8.732;2023-02-11T00:59:19;42.03;;;22.00;;
43744;SDS011;29359;53.048;8.732;2023-02-11T01:01:21;40.10;;;22.35;;
43744;SDS011;29359;53.048;8.732;2023-02-11T01:03:23;45.28;;;22.83;;
43744;SDS011;29359;53.048;8.732;2023-02-11T01:05:24;49.03;;;23.95;;
43744;SDS011;29359;53.048;8.732;2023-02-11T01:07:26;40.47;;;21.25;;
43744;SDS011;29359;53.048;8.732;2023-02-11T01:09:28;46.85;;;21.98;;
43744;SDS011;29359;53.048;8.732;2023-02-11T01:11:30;42.58;;;21.75;;
43744;SDS011;29359;53.048;8.732;2023-02-11T01:13:32;44.38;;;21.27;;
43744;SDS011;29359;53.048;8.732;2023-02-11T01:15:37;38.85;;;21.38;;
43744;SDS011;29359;53.048;8.732;2023-02-11T01:17:38;46.53;;;22.55;;
43744;SDS011;29359;53.048;8.732;2023-02-11T01:19:40;40.63;;;22.85;;
43744;SDS011;29359;53.048;8.732;2023-02-11T01:21:42;40.03;;;22.85;;
43744;SDS011;29359;53.048;8.732;2023-02-11T01:23:43;43.00;;;22.17;;
43744;SDS011;29359;53.048;8.732;2023-02-11T01:25:45;44.78;;;22.52;;
43744;SDS011;29359;53.048;8.732;2023-02-11T01:27:47;37.88;;;22.42;;
43744;SDS011;29359;53.048;8.732;2023-02-11T01:29:48;38.08;;;21.35;;
43744;SDS011;29359;53.048;8.732;2023-02-11T01:31:50;43.58;;;22.08;;
43744;SDS011;29359;53.048;8.732;2023-02-11T01:33:52;36.40;;;21.55;;
43744;SDS011;29359;53.048;8.732;2023-02-11T01:35:54;43.53;;;22.10;;
43744;SDS011;29359;53.048;8.732;2023-02-11T01:37:55;38.15;;;21.30;;
43744;SDS011;29359;53.048;8.732;2023-02-11T01:39:57;39.20;;;21.27;;
43744;SDS011;29359;53.048;8.732;2023-02-11T01:41:58;38.15;;;20.13;;
43744;SDS011;29359;53.048;8.732;2023-02-11T01:46:37;37.28;;;20.75;;
43744;SDS011;29359;53.048;8.732;2023-02-11T01:48:43;33.78;;;20.15;;
43744;SDS011;29359;53.048;8.732;2023-02-11T01:50:48;35.50;;;20.35;;
43744;SDS011;29359;53.048;8.732;2023-02-11T01:52:53;32.00;;;19.20;;
43744;SDS011;29359;53.048;8.732;2023-02-11T01:55:14;36.55;;;21.25;;
43744;SDS011;29359;53.048;8.732;2023-02-11T01:57:36;44.35;;;20.27;;
43744;SDS011;29359;53.048;8.732;2023-02-11T01:59:46;39.75;;;20.25;;
43744;SDS011;29359;53.048;8.732;2023-02-11T02:01:52;36.50;;;19.23;;
43744;SDS011;29359;53.048;8.732;2023-02-11T02:03:59;38.13;;;19.23;;
43744;SDS011;29359;53.048;8.732;2023-02-11T02:06:05;37.38;;;18.83;;
43744;SDS011;29359;53.048;8.732;2023-02-11T02:08:18;29.65;;;18.33;;
43744;SDS011;29359;53.048;8.732;2023-02-11T02:10:22;35.00;;;18.48;;
43744;SDS011;29359;53.048;8.732;2023-02-11T02:12:25;33.80;;;19.58;;
43744;SDS011;29359;53.048;8.732;2023-02-11T02:14:27;34.95;;;18.70;;
43744;SDS011;29359;53.048;8.732;2023-02-11T02:16:30;39.75;;;19.27;;
43744;SDS011;29359;53.048;8.732;2023-02-11T02:26:03;33.67;;;18.40;;
43744;SDS011;29359;53.048;8.732;2023-02-11T02:34:29;37.60;;;18.92;;
43744;SDS011;29359;53.048;8.732;2023-02-11T02:36:48;36.88;;;18.35;;
43744;SDS011;29359;53.048;8.732;2023-02-11T02:39:04;35.05;;;18.42;;
43744;SDS011;29359;53.048;8.732;2023-02-11T02:41:10;36.75;;;18.30;;
43744;SDS011;29359;53.048;8.732;2023-02-11T02:43:15;39.28;;;18.83;;
43744;SDS011;29359;53.048;8.732;2023-02-11T02:45:18;33.67;;;18.05;;
43744;SDS011;29359;53.048;8.732;2023-02-11T02:47:20;33.85;;;17.80;;
43744;SDS011;29359;53.048;8.732;2023-02-11T02:49:21;34.10;;;17.85;;
43744;SDS011;29359;53.048;8.732;2023-02-11T02:56:11;36.03;;;17.73;;
43744;SDS011;29359;53.048;8.732;2023-02-11T02:58:24;35.83;;;16.48;;
43744;SDS011;29359;53.048;8.732;2023-02-11T03:04:57;36.70;;;17.70;;
43744;SDS011;29359;53.048;8.732;2023-02-11T03:09:39;30.02;;;16.55;;
43744;SDS011;29359;53.048;8.732;2023-02-11T03:11:47;42.13;;;18.73;;
43744;SDS011;29359;53.048;8.732;2023-02-11T03:13:49;31.67;;;16.17;;
43744;SDS011;29359;53.048;8.732;2023-02-11T03:15:52;32.00;;;17.45;;
43744;SDS011;29359;53.048;8.732;2023-02-11T03:17:58;31.92;;;16.67;;
43744;SDS011;29359;53.048;8.732;2023-02-11T03:20:03;33.20;;;16.85;;
43744;SDS011;29359;53.048;8.732;2023-02-11T03:22:07;28.30;;;16.05;;
43744;SDS011;29359;53.048;8.732;2023-02-11T03:24:15;35.45;;;16.60;;
43744;SDS011;29359;53.048;8.732;2023-02-11T03:26:33;35.67;;;16.55;;
43744;SDS011;29359;53.048;8.732;2023-02-11T03:28:41;31.08;;;15.30;;
43744;SDS011;29359;53.048;8.732;2023-02-11T03:31:03;33.00;;;15.15;;
43744;SDS011;29359;53.048;8.732;2023-02-11T03:33:12;43.97;;;16.75;;
43744;SDS011;29359;53.048;8.732;2023-02-11T03:35:19;35.30;;;17.20;;
43744;SDS011;29359;53.048;8.732;2023-02-11T03:37:34;31.27;;;16.17;;
43744;SDS011;29359;53.048;8.732;2023-02-11T03:39:51;26.83;;;14.82;;
43744;SDS011;29359;53.048;8.732;2023-02-11T03:41:57;37.03;;;16.05;;
43744;SDS011;29359;53.048;8.732;2023-02-11T03:44:00;33.15;;;15.93;;
43744;SDS011;29359;53.048;8.732;2023-02-11T03:46:03;31.50;;;15.07;;
43744;SDS011;29359;53.048;8.732;2023-02-11T03:48:10;31.48;;;14.85;;
43744;SDS011;29359;53.048;8.732;2023-02-11T03:50:14;36.65;;;15.40;;
43744;SDS011;29359;53.048;8.732;2023-02-11T03:52:18;33.30;;;13.95;;
43744;SDS011;29359;53.048;8.732;2023-02-11T03:54:23;30.45;;;13.93;;
43744;SDS011;29359;53.048;8.732;2023-02-11T03:56:29;29.63;;;14.23;;
43744;SDS011;29359;53.048;8.732;2023-02-11T03:58:36;35.80;;;14.18;;
43744;SDS011;29359;53.048;8.732;2023-02-11T04:00:38;32.22;;;14.70;;
43744;SDS011;29359;53.048;8.732;2023-02-11T04:02:41;27.98;;;13.32;;
43744;SDS011;29359;53.048;8.732;2023-02-11T04:04:43;30.58;;;14.07;;
43744;SDS011;29359;53.048;8.732;2023-02-11T04:06:45;31.63;;;13.82;;
43744;SDS011;29359;53.048;8.732;2023-02-11T04:08:47;25.65;;;14.38;;
43744;SDS011;29359;53.048;8.732;2023-02-11T04:10:48;33.33;;;13.05;;
43744;SDS011;29359;53.048;8.732;2023-02-11T04:12:50;31.20;;;12.75;;
43744;SDS011;29359;53.048;8.732;2023-02-11T04:14:51;34.10;;;13.90;;
43744;SDS011;29359;53.048;8.732;2023-02-11T04:16:53;26.30;;;12.95;;
43744;SDS011;29359;53.048;8.732;2023-02-11T04:18:54;34.60;;;12.75;;
43744;SDS011;29359;53.048;8.732;2023-02-11T04:20:56;27.80;;;13.93;;
43744;SDS011;29359;53.048;8.732;2023-02-11T04:22:57;28.92;;;13.68;;
43744;SDS011;29359;53.048;8.732;2023-02-11T04:24:59;32.13;;;12.63;;
43744;SDS011;29359;53.048;8.732;2023-02-11T04:27:00;30.45;;;12.23;;
43744;SDS011;29359;53.048;8.732;2023-02-11T04:29:02;23.20;;;12.60;;
43744;SDS011;29359;53.048;8.732;2023-02-11T04:31:05;26.30;;;13.30;;
43744;SDS011;29359;53.048;8.732;2023-02-11T04:33:06;23.58;;;13.05;;
43744;SDS011;29359;53.048;8.732;2023-02-11T04:35:08;22.98;;;11.77;;
43744;SDS011;29359;53.048;8.732;2023-02-11T04:37:09;34.08;;;13.13;;
43744;SDS011;29359;53.048;8.732;2023-02-11T04:39:11;26.83;;;12.23;;
43744;SDS011;29359;53.048;8.732;2023-02-11T04:41:13;40.78;;;13.15;;
43744;SDS011;29359;53.048;8.732;2023-02-11T04:43:14;29.30;;;13.05;;
43744;SDS011;29359;53.048;8.732;2023-02-11T04:45:16;28.45;;;13.45;;
43744;SDS011;29359;53.048;8.732;2023-02-11T04:47:17;26.70;;;12.43;;
43744;SDS011;29359;53.048;8.732;2023-02-11T04:49:19;27.80;;;12.93;;
43744;SDS011;29359;53.048;8.732;2023-02-11T04:51:20;20.55;;;12.10;;
43744;SDS011;29359;53.048;8.732;2023-02-11T04:53:22;23.38;;;11.93;;
43744;SDS011;29359;53.048;8.732;2023-02-11T04:55:23;24.20;;;12.38;;
43744;SDS011;29359;53.048;8.732;2023-02-11T04:57:25;27.13;;;11.85;;
43744;SDS011;29359;53.048;8.732;2023-02-11T04:59:26;23.98;;;11.95;;
43744;SDS011;29359;53.048;8.732;2023-02-11T05:01:29;26.77;;;12.15;;
43744;SDS011;29359;53.048;8.732;2023-02-11T05:03:31;29.45;;;12.25;;
43744;SDS011;29359;53.048;8.732;2023-02-11T05:05:32;28.63;;;12.57;;
43744;SDS011;29359;53.048;8.732;2023-02-11T05:07:34;25.48;;;12.38;;
43744;SDS011;29359;53.048;8.732;2023-02-11T05:09:35;33.42;;;11.93;;
43744;SDS011;29359;53.048;8.732;2023-02-11T05:11:37;24.95;;;11.95;;
43744;SDS011;29359;53.048;8.732;2023-02-11T05:13:39;23.60;;;11.70;;
43744;SDS011;29359;53.048;8.732;2023-02-11T05:15:41;31.98;;;13.32;;
43744;SDS011;29359;53.048;8.732;2023-02-11T05:17:42;22.50;;;11.10;;
43744;SDS011;29359;53.048;8.732;2023-02-11T05:19:44;25.30;;;12.57;;
43744;SDS011;29359;53.048;8.732;2023-02-11T05:21:45;24.80;;;11.75;;
43744;SDS011;29359;53.048;8.732;2023-02-11T05:24:02;33.42;;;12.57;;
43744;SDS011;29359;53.048;8.732;2023-02-11T05:26:04;29.83;;;13.23;;
43744;SDS011;29359;53.048;8.732;2023-02-11T05:28:06;30.70;;;13.38;;
43744;SDS011;29359;53.048;8.732;2023-02-11T05:30:08;30.83;;;13.63;;
43744;SDS011;29359;53.048;8.732;2023-02-11T05:32:10;28.00;;;11.77;;
43744;SDS011;29359;53.048;8.732;2023-02-11T05:34:12;30.00;;;13.25;;
43744;SDS011;29359;53.048;8.732;2023-02-11T05:36:14;24.10;;;11.30;;
43744;SDS011;29359;53.048;8.732;2023-02-11T05:38:16;27.98;;;12.68;;
43744;SDS011;29359;53.048;8.732;2023-02-11T05:40:18;31.95;;;12.80;;
43744;SDS011;29359;53.048;8.732;2023-02-11T05:42:20;20.70;;;12.10;;
43744;SDS011;29359;53.048;8.732;2023-02-11T05:44:21;26.17;;;12.18;;
43744;SDS011;29359;53.048;8.732;2023-02-11T05:46:23;24.33;;;11.57;;
43744;SDS011;29359;53.048;8.732;2023-02-11T05:48:24;26.88;;;12.57;;
43744;SDS011;29359;53.048;8.732;2023-02-11T05:50:26;32.35;;;12.55;;
43744;SDS011;29359;53.048;8.732;2023-02-11T05:52:27;28.33;;;12.25;;
43744;SDS011;29359;53.048;8.732;2023-02-11T05:54:29;26.08;;;12.85;;
43744;SDS011;29359;53.048;8.732;2023-02-11T05:56:30;34.78;;;12.65;;
43744;SDS011;29359;53.048;8.732;2023-02-11T05:58:32;27.65;;;11.40;;
43744;SDS011;29359;53.048;8.732;2023-02-11T06:00:33;30.33;;;11.75;;
43744;SDS011;29359;53.048;8.732;2023-02-11T06:02:35;28.75;;;12.80;;
43744;SDS011;29359;53.048;8.732;2023-02-11T06:04:37;25.95;;;11.82;;
43744;SDS011;29359;53.048;8.732;2023-02-11T06:06:38;24.73;;;12.00;;
43744;SDS011;29359;53.048;8.732;2023-02-11T06:08:40;27.58;;;13.05;;
43744;SDS011;29359;53.048;8.732;2023-02-11T06:10:43;28.23;;;12.00;;
43744;SDS011;29359;53.048;8.732;2023-02-11T06:12:45;26.48;;;12.25;;
43744;SDS011;29359;53.048;8.732;2023-02-11T06:14:47;28.60;;;12.93;;
43744;SDS011;29359;53.048;8.732;2023-02-11T06:16:48;29.75;;;12.57;;
43744;SDS011;29359;53.048;8.732;2023-02-11T06:18:50;25.92;;;13.43;;
43744;SDS011;29359;53.048;8.732;2023-02-11T06:20:51;25.42;;;13.57;;
43744;SDS011;29359;53.048;8.732;2023-02-11T06:22:53;21.23;;;12.63;;
43744;SDS011;29359;53.048;8.732;2023-02-11T06:24:54;27.13;;;12.27;;
43744;SDS011;29359;53.048;8.732;2023-02-11T06:27:02;28.58;;;14.00;;
43744;SDS011;29359;53.048;8.732;2023-02-11T06:29:05;36.60;;;14.13;;
43744;SDS011;29359;53.048;8.732;2023-02-11T06:31:06;27.88;;;12.98;;
43744;SDS011;29359;53.048;8.732;2023-02-11T06:33:09;30.35;;;13.55;;
43744;SDS011;29359;53.048;8.732;2023-02-11T06:35:12;35.20;;;15.43;;
43744;SDS011;29359;53.048;8.732;2023-02-11T06:37:14;28.80;;;13.30;;
43744;SDS011;29359;53.048;8.732;2023-02-11T06:39:16;23.85;;;12.82;;
43744;SDS011;29359;53.048;8.732;2023-02-11T06:41:17;25.85;;;13.30;;
43744;SDS011;29359;53.048;8.732;2023-02-11T06:43:23;24.20;;;13.45;;
43744;SDS011;29359;53.048;8.732;2023-02-11T06:45:24;33.25;;;13.45;;
43744;SDS011;29359;53.048;8.732;2023-02-11T06:47:26;28.92;;;13.73;;
43744;SDS011;29359;53.048;8.732;2023-02-11T06:49:27;29.45;;;13.63;;
43744;SDS011;29359;53.048;8.732;2023-02-11T06:51:29;25.65;;;13.73;;
43744;SDS011;29359;53.048;8.732;2023-02-11T06:53:31;30.17;;;13.40;;
43744;SDS011;29359;53.048;8.732;2023-02-11T06:55:35;27.50;;;13.25;;
43744;SDS011;29359;53.048;8.732;2023-02-11T06:57:37;26.55;;;13.90;;
43744;SDS011;29359;53.048;8.732;2023-02-11T06:59:38;28.05;;;14.15;;
43744;SDS011;29359;53.048;8.732;2023-02-11T07:01:40;32.47;;;13.18;;
43744;SDS011;29359;53.048;8.732;2023-02-11T07:03:42;25.70;;;14.30;;
43744;SDS011;29359;53.048;8.732;2023-02-11T07:05:44;33.47;;;15.75;;
43744;SDS011;29359;53.048;8.732;2023-02-11T07:07:46;32.95;;;14.18;;
43744;SDS011;29359;53.048;8.732;2023-02-11T07:09:47;27.27;;;13.70;;
43744;SDS011;29359;53.048;8.732;2023-02-11T07:11:49;26.88;;;13.68;;
43744;SDS011;29359;53.048;8.732;2023-02-11T07:13:50;37.40;;;15.35;;
43744;SDS011;29359;53.048;8.732;2023-02-11T07:15:53;29.17;;;14.02;;
43744;SDS011;29359;53.048;8.732;2023-02-11T07:17:54;23.92;;;13.18;;
43744;SDS011;29359;53.048;8.732;2023-02-11T07:19:56;25.83;;;14.48;;
43744;SDS011;29359;53.048;8.732;2023-02-11T07:21:58;27.20;;;14.40;;
43744;SDS011;29359;53.048;8.732;2023-02-11T07:24:00;29.80;;;13.95;;
43744;SDS011;29359;53.048;8.732;2023-02-11T07:26:12;31.55;;;13.40;;
43744;SDS011;29359;53.048;8.732;2023-02-11T07:28:15;25.80;;;14.05;;
43744;SDS011;29359;53.048;8.732;2023-02-11T07:30:17;25.55;;;13.75;;
43744;SDS011;29359;53.048;8.732;2023-02-11T07:32:18;26.25;;;13.85;;
43744;SDS011;29359;53.048;8.732;2023-02-11T07:34:20;27.13;;;13.77;;
43744;SDS011;29359;53.048;8.732;2023-02-11T07:36:21;26.92;;;13.25;;
43744;SDS011;29359;53.048;8.732;2023-02-11T07:38:23;28.15;;;13.85;;
43744;SDS011;29359;53.048;8.732;2023-02-11T07:40:25;26.42;;;13.63;;
43744;SDS011;29359;53.048;8.732;2023-02-11T07:42:26;32.10;;;15.52;;
43744;SDS011;29359;53.048;8.732;2023-02-11T07:44:28;31.40;;;14.07;;
43744;SDS011;29359;53.048;8.732;2023-02-11T07:46:29;25.67;;;13.80;;
43744;SDS011;29359;53.048;8.732;2023-02-11T07:48:31;23.95;;;13.50;;
43744;SDS011;29359;53.048;8.732;2023-02-11T07:50:33;23.77;;;13.20;;
43744;SDS011;29359;53.048;8.732;2023-02-11T07:52:34;27.15;;;12.95;;
43744;SDS011;29359;53.048;8.732;2023-02-11T07:54:36;27.88;;;13.45;;
43744;SDS011;29359;53.048;8.732;2023-02-11T07:56:37;30.77;;;13.18;;
43744;SDS011;29359;53.048;8.732;2023-02-11T07:58:39;28.98;;;13.60;;
43744;SDS011;29359;53.048;8.732;2023-02-11T08:00:43;29.55;;;14.02;;
43744;SDS011;29359;53.048;8.732;2023-02-11T08:02:46;25.45;;;13.35;;
43744;SDS011;29359;53.048;8.732;2023-02-11T08:04:47;25.10;;;13.82;;
43744;SDS011;29359;53.048;8.732;2023-02-11T08:06:49;28.05;;;13.68;;
43744;SDS011;29359;53.048;8.732;2023-02-11T08:08:52;33.30;;;14.73;;
43744;SDS011;29359;53.048;8.732;2023-02-11T08:10:54;24.92;;;12.90;;
43744;SDS011;29359;53.048;8.732;2023-02-11T08:12:56;28.58;;;13.75;;
43744;SDS011;29359;53.048;8.732;2023-02-11T08:14:57;32.28;;;13.25;;
43744;SDS011;29359;53.048;8.732;2023-02-11T08:16:59;27.60;;;14.43;;
43744;SDS011;29359;53.048;8.732;2023-02-11T08:19:02;27.17;;;13.70;;
43744;SDS011;29359;53.048;8.732;2023-02-11T08:21:06;26.77;;;13.23;;
43744;SDS011;29359;53.048;8.732;2023-02-11T08:23:09;28.45;;;14.05;;
43744;SDS011;29359;53.048;8.732;2023-02-11T08:25:11;26.85;;;13.18;;
43744;SDS011;29359;53.048;8.732;2023-02-11T08:27:12;22.10;;;13.23;;
43744;SDS011;29359;53.048;8.732;2023-02-11T08:29:14;26.85;;;13.15;;
43744;SDS011;29359;53.048;8.732;2023-02-11T08:31:18;23.48;;;13.52;;
43744;SDS011;29359;53.048;8.732;2023-02-11T08:33:21;29.85;;;12.57;;
43744;SDS011;29359;53.048;8.732;2023-02-11T08:35:23;33.35;;;13.63;;
43744;SDS011;29359;53.048;8.732;2023-02-11T08:37:26;28.55;;;13.82;;
43744;SDS011;29359;53.048;8.732;2023-02-11T08:39:27;21.90;;;12.32;;
43744;SDS011;29359;53.048;8.732;2023-02-11T08:41:29;19.40;;;12.10;;
43744;SDS011;29359;53.048;8.732;2023-02-11T08:43:31;26.25;;;12.65;;
43744;SDS011;29359;53.048;8.732;2023-02-11T08:45:33;32.70;;;13.20;;
43744;SDS011;29359;53.048;8.732;2023-02-11T08:47:35;25.30;;;12.68;;
43744;SDS011;29359;53.048;8.732;2023-02-11T08:49:37;27.52;;;12.35;;
43744;SDS011;29359;53.048;8.732;2023-02-11T08:51:39;25.45;;;13.05;;
43744;SDS011;29359;53.048;8.732;2023-02-11T08:53:40;28.83;;;12.90;;
43744;SDS011;29359;53.048;8.732;2023-02-11T08:55:48;23.95;;;12.63;;
43744;SDS011;29359;53.048;8.732;2023-02-11T08:57:53;20.67;;;12.68;;
43744;SDS011;29359;53.048;8.732;2023-02-11T08:59:55;29.15;;;13.45;;
43744;SDS011;29359;53.048;8.732;2023-02-11T09:01:56;27.02;;;12.68;;
43744;SDS011;29359;53.048;8.732;2023-02-11T09:03:58;20.52;;;12.20;;
43744;SDS011;29359;53.048;8.732;2023-02-11T09:06:03;23.67;;;12.88;;
43744;SDS011;29359;53.048;8.732;2023-02-11T09:08:06;26.08;;;13.18;;
43744;SDS011;29359;53.048;8.732;2023-02-11T09:10:07;22.55;;;12.45;;
43744;SDS011;29359;53.048;8.732;2023-02-11T09:12:09;23.30;;;12.32;;
43744;SDS011;29359;53.048;8.732;2023-02-11T09:14:15;25.58;;;12.82;;
43744;SDS011;29359;53.048;8.732;2023-02-11T09:16:20;25.58;;;13.63;;
43744;SDS011;29359;53.048;8.732;2023-02-11T09:18:24;31.42;;;13.00;;
43744;SDS011;29359;53.048;8.732;2023-02-11T09:20:26;26.92;;;13.55;;
43744;SDS011;29359;53.048;8.732;2023-02-11T09:22:27;26.30;;;12.32;;
43744;SDS011;29359;53.048;8.732;2023-02-11T09:24:29;28.30;;;12.82;;
43744;SDS011;29359;53.048;8.732;2023-02-11T09:26:31;22.88;;;11.80;;
43744;SDS011;29359;53.048;8.732;2023-02-11T09:28:34;16.45;;;12.15;;
43744;SDS011;29359;53.048;8.732;2023-02-11T09:30:36;25.55;;;13.35;;
43744;SDS011;29359;53.048;8.732;2023-02-11T09:32:39;23.65;;;12.80;;
43744;SDS011;29359;53.048;8.732;2023-02-11T09:34:40;30.70;;;12.80;;
43744;SDS011;29359;53.048;8.732;2023-02-11T09:36:42;23.83;;;12.43;;
43744;SDS011;29359;53.048;8.732;2023-02-11T09:38:43;20.27;;;12.30;;
43744;SDS011;29359;53.048;8.732;2023-02-11T09:40:45;22.58;;;11.57;;
43744;SDS011;29359;53.048;8.732;2023-02-11T09:43:30;24.05;;;12.20;;
43744;SDS011;29359;53.048;8.732;2023-02-11T09:45:21;17.88;;;11.25;;
43744;SDS011;29359;53.048;8.732;2023-02-11T09:47:32;22.20;;;12.03;;
43744;SDS011;29359;53.048;8.732;2023-02-11T09:49:52;18.80;;;11.50;;
43744;SDS011;29359;53.048;8.732;2023-02-11T09:54:44;15.80;;;10.43;;
43744;SDS011;29359;53.048;8.732;2023-02-11T09:56:57;23.35;;;11.60;;
43744;SDS011;29359;53.048;8.732;2023-02-11T09:58:59;25.17;;;11.27;;
43744;SDS011;29359;53.048;8.732;2023-02-11T10:17:57;23.75;;;12.27;;
43744;SDS011;29359;53.048;8.732;2023-02-11T10:23:58;18.35;;;11.20;;
43744;SDS011;29359;53.048;8.732;2023-02-11T10:26:07;24.38;;;12.18;;
43744;SDS011;29359;53.048;8.732;2023-02-11T10:28:19;23.98;;;13.15;;
43744;SDS011;29359;53.048;8.732;2023-02-11T10:30:35;17.92;;;11.82;;
43744;SDS011;29359;53.048;8.732;2023-02-11T10:32:45;21.60;;;12.10;;
43744;SDS011;29359;53.048;8.732;2023-02-11T10:34:51;20.73;;;12.57;;
43744;SDS011;29359;53.048;8.732;2023-02-11T10:36:58;19.50;;;11.07;;
43744;SDS011;29359;53.048;8.732;2023-02-11T10:39:01;19.58;;;11.65;;
43744;SDS011;29359;53.048;8.732;2023-02-11T10:41:12;21.63;;;12.90;;
43744;SDS011;29359;53.048;8.732;2023-02-11T10:43:20;28.20;;;12.77;;
43744;SDS011;29359;53.048;8.732;2023-02-11T10:45:32;25.17;;;12.25;;
43744;SDS011;29359;53.048;8.732;2023-02-11T10:47:36;20.98;;;12.05;;
43744;SDS011;29359;53.048;8.732;2023-02-11T10:51:42;20.40;;;12.45;;
43744;SDS011;29359;53.048;8.732;2023-02-11T10:53:44;20.70;;;11.60;;
43744;SDS011;29359;53.048;8.732;2023-02-11T10:55:47;24.73;;;12.43;;
43744;SDS011;29359;53.048;8.732;2023-02-11T10:57:58;21.67;;;11.88;;
43744;SDS011;29359;53.048;8.732;2023-02-11T11:00:50;22.33;;;12.10;;
43744;SDS011;29359;53.048;8.732;2023-02-11T11:02:30;23.48;;;13.10;;
43744;SDS011;29359;53.048;8.732;2023-02-11T11:04:38;22.70;;;11.93;;
43744;SDS011;29359;53.048;8.732;2023-02-11T11:06:42;24.58;;;12.68;;
43744;SDS011;29359;53.048;8.732;2023-02-11T11:08:45;22.35;;;12.10;;
43744;SDS011;29359;53.048;8.732;2023-02-11T11:11:00;24.00;;;12.00;;
43744;SDS011;29359;53.048;8.732;2023-02-11T11:13:13;22.95;;;13.57;;
43744;SDS011;29359;53.048;8.732;2023-02-11T11:15:28;22.63;;;12.48;;
43744;SDS011;29359;53.048;8.732;2023-02-11T11:17:32;21.90;;;12.07;;
43744;SDS011;29359;53.048;8.732;2023-02-11T11:19:33;22.38;;;10.93;;
43744;SDS011;29359;53.048;8.732;2023-02-11T11:23:46;29.13;;;11.68;;
43744;SDS011;29359;53.048;8.732;2023-02-11T11:28:03;16.63;;;11.23;;
43744;SDS011;29359;53.048;8.732;2023-02-11T11:30:05;23.10;;;12.80;;
43744;SDS011;29359;53.048;8.732;2023-02-11T11:32:21;26.30;;;17.50;;
43744;SDS011;29359;53.048;8.732;2023-02-11T11:34:28;26.58;;;12.15;;
43744;SDS011;29359;53.048;8.732;2023-02-11T11:36:36;21.60;;;11.82;;
43744;SDS011;29359;53.048;8.732;2023-02-11T11:38:44;19.92;;;11.75;;
43744;SDS011;29359;53.048;8.732;2023-02-11T11:41:11;25.02;;;12.50;;
43744;SDS011;29359;53.048;8.732;2023-02-11T11:43:21;20.17;;;11.05;;
43744;SDS011;29359;53.048;8.732;2023-02-11T11:45:24;21.90;;;11.20;;
43744;SDS011;29359;53.048;8.732;2023-02-11T11:52:18;20.25;;;10.55;;
43744;SDS011;29359;53.048;8.732;2023-02-11T11:54:33;21.63;;;10.27;;
43744;SDS011;29359;53.048;8.732;2023-02-11T11:56:39;25.80;;;11.15;;
43744;SDS011;29359;53.048;8.732;2023-02-11T11:58:50;25.23;;;11.15;;
43744;SDS011;29359;53.048;8.732;2023-02-11T12:03:44;28.05;;;11.35;;
43744;SDS011;29359;53.048;8.732;2023-02-11T12:11:16;20.73;;;9.88;;
43744;SDS011;29359;53.048;8.732;2023-02-11T12:15:59;22.67;;;9.93;;
43744;SDS011;29359;53.048;8.732;2023-02-11T12:25:24;18.50;;;8.90;;
43744;SDS011;29359;53.048;8.732;2023-02-11T12:27:38;23.02;;;10.00;;
43744;SDS011;29359;53.048;8.732;2023-02-11T12:39:16;32.80;;;12.05;;
43744;SDS011;29359;53.048;8.732;2023-02-11T12:52:17;20.00;;;8.95;;
43744;SDS011;29359;53.048;8.732;2023-02-11T12:56:49;27.02;;;9.82;;
43744;SDS011;29359;53.048;8.732;2023-02-11T12:58:53;29.02;;;9.57;;
43744;SDS011;29359;53.048;8.732;2023-02-11T13:01:07;25.60;;;9.55;;
43744;SDS011;29359;53.048;8.732;2023-02-11T13:03:23;19.75;;;8.15;;
43744;SDS011;29359;53.048;8.732;2023-02-11T13:08:13;21.65;;;8.50;;
43744;SDS011;29359;53.048;8.732;2023-02-11T13:10:24;21.92;;;7.53;;
43744;SDS011;29359;53.048;8.732;2023-02-11T13:12:30;23.63;;;7.95;;
43744;SDS011;29359;53.048;8.732;2023-02-11T13:14:52;29.00;;;10.32;;
43744;SDS011;29359;53.048;8.732;2023-02-11T13:16:59;29.00;;;11.32;;
43744;SDS011;29359;53.048;8.732;2023-02-11T13:24:07;23.83;;;7.20;;
43744;SDS011;29359;53.048;8.732;2023-02-11T13:26:51;17.60;;;6.43;;
43744;SDS011;29359;53.048;8.732;2023-02-11T13:31:10;19.42;;;6.32;;
43744;SDS011;29359;53.048;8.732;2023-02-11T13:37:37;17.08;;;7.65;;
43744;SDS011;29359;53.048;8.732;2023-02-11T13:39:39;15.20;;;6.25;;
43744;SDS011;29359;53.048;8.732;2023-02-11T13:41:41;15.80;;;6.45;;
43744;SDS011;29359;53.048;8.732;2023-02-11T13:43:55;13.52;;;6.18;;
43744;SDS011;29359;53.048;8.732;2023-02-11T13:46:19;21.55;;;6.28;;
43744;SDS011;29359;53.048;8.732;2023-02-11T13:48:25;25.20;;;6.70;;
43744;SDS011;29359;53.048;8.732;2023-02-11T13:50:34;14.52;;;6.55;;
43744;SDS011;29359;53.048;8.732;2023-02-11T13:52:39;23.40;;;6.80;;
43744;SDS011;29359;53.048;8.732;2023-02-11T13:54:45;22.10;;;6.75;;
43744;SDS011;29359;53.048;8.732;2023-02-11T14:04:19;17.75;;;5.90;;
43744;SDS011;29359;53.048;8.732;2023-02-11T14:06:41;20.48;;;7.22;;
43744;SDS011;29359;53.048;8.732;2023-02-11T14:09:40;16.50;;;6.03;;
43744;SDS011;29359;53.048;8.732;2023-02-11T14:11:52;21.05;;;6.65;;
43744;SDS011;29359;53.048;8.732;2023-02-11T14:14:01;21.20;;;6.10;;
43744;SDS011;29359;53.048;8.732;2023-02-11T14:16:24;18.20;;;6.45;;